Alexandria, Ohio
Current Conditions -  °F | °C
As of 12:54 PM on Friday 19 Dec 2014 (Local Time) from KVTA Reporting Station
Overcast Overcast  
Wind Chill: 26°   Ceiling: 2000
Heat Index: 31°   Visibility: 9mi
Dew Point: 23°   Wind: 5mph
Humidity: 72%   Direction: 310°NW
Pressure: 30.24"   Gusts: NA
Location:  40.09°N, 82.61°W
Report Text: KVTA 191754Z AUTO 31004KT 9SM OVC020 M01/M05 A3024 RMK AO2 SLP249 T10061050 11006 21017 58007
Loading
Personal Weather Stations






























Interactive Weather Map New forecast layout! Learn more

10-Day Weather Forecast

Advertisements
Track Severe Weather on mobile